sensor_id;sensor_type;location;lat;lon;timestamp;pressure;altitude;pressure_sealevel;temperature;humidity
56074;BME280;41950;55.840;37.442;2023-05-03T00:00:29;99841.72;;;9.14;45.11
56074;BME280;41950;55.840;37.442;2023-05-03T00:02:55;99841.72;;;9.15;45.24
56074;BME280;41950;55.840;37.442;2023-05-03T00:05:21;99781.63;;;8.80;45.28
56074;BME280;41950;55.840;37.442;2023-05-03T00:07:47;99789.25;;;8.93;44.80
56074;BME280;41950;55.840;37.442;2023-05-03T00:10:13;99777.28;;;8.83;44.80
56074;BME280;41950;55.840;37.442;2023-05-03T00:12:41;99830.34;;;9.30;44.64
56074;BME280;41950;55.840;37.442;2023-05-03T00:15:08;99834.59;;;9.37;44.08
56074;BME280;41950;55.840;37.442;2023-05-03T00:17:37;99696.47;;;8.52;43.84
56074;BME280;41950;55.840;37.442;2023-05-03T00:20:03;99669.84;;;8.41;43.69
56074;BME280;41950;55.840;37.442;2023-05-03T00:22:30;99692.09;;;8.59;43.45
56074;BME280;41950;55.840;37.442;2023-05-03T00:24:58;99783.03;;;9.13;43.72
56074;BME280;41950;55.840;37.442;2023-05-03T00:27:24;99788.09;;;9.23;43.83
56074;BME280;41950;55.840;37.442;2023-05-03T00:29:50;99739.31;;;8.85;44.08
56074;BME280;41950;55.840;37.442;2023-05-03T00:32:20;99674.94;;;8.47;44.53
56074;BME280;41950;55.840;37.442;2023-05-03T00:34:56;99707.63;;;8.60;44.17
56074;BME280;41950;55.840;37.442;2023-05-03T00:37:22;99754.81;;;8.85;44.17
56074;BME280;41950;55.840;37.442;2023-05-03T00:39:48;99785.69;;;9.04;44.38
56074;BME280;41950;55.840;37.442;2023-05-03T00:42:15;99761.66;;;8.92;44.13
56074;BME280;41950;55.840;37.442;2023-05-03T00:44:41;99580.72;;;7.78;44.11
56074;BME280;41950;55.840;37.442;2023-05-03T00:47:07;99631.25;;;8.12;44.27
56074;BME280;41950;55.840;37.442;2023-05-03T00:49:33;99796.81;;;9.16;44.46
56074;BME280;41950;55.840;37.442;2023-05-03T00:51:59;99716.19;;;8.64;44.93
56074;BME280;41950;55.840;37.442;2023-05-03T00:54:26;99662.19;;;8.27;45.02
56074;BME280;41950;55.840;37.442;2023-05-03T00:56:53;99608.94;;;8.05;45.22
56074;BME280;41950;55.840;37.442;2023-05-03T00:59:20;99494.88;;;7.47;45.25
56074;BME280;41950;55.840;37.442;2023-05-03T01:01:50;99663.75;;;8.47;45.00
56074;BME280;41950;55.840;37.442;2023-05-03T01:04:16;99651.69;;;8.46;45.20
56074;BME280;41950;55.840;37.442;2023-05-03T01:09:35;99627.81;;;8.12;44.82
56074;BME280;41950;55.840;37.442;2023-05-03T01:17:13;99671.47;;;8.54;44.97
56074;BME280;41950;55.840;37.442;2023-05-03T01:19:50;99669.63;;;8.65;45.44
56074;BME280;41950;55.840;37.442;2023-05-03T01:27:32;99624.06;;;8.48;45.27
56074;BME280;41950;55.840;37.442;2023-05-03T01:29:58;99613.78;;;8.43;45.68
56074;BME280;41950;55.840;37.442;2023-05-03T01:35:36;99751.78;;;9.29;44.85
56074;BME280;41950;55.840;37.442;2023-05-03T01:38:06;99678.16;;;8.74;45.19
56074;BME280;41950;55.840;37.442;2023-05-03T01:40:37;99648.19;;;8.53;45.73
56074;BME280;41950;55.840;37.442;2023-05-03T01:43:05;99757.91;;;9.21;45.39
56074;BME280;41950;55.840;37.442;2023-05-03T01:45:31;99675.56;;;8.72;45.57
56074;BME280;41950;55.840;37.442;2023-05-03T01:47:58;99605.25;;;8.33;45.57
56074;BME280;41950;55.840;37.442;2023-05-03T01:50:23;99745.81;;;9.23;45.79
56074;BME280;41950;55.840;37.442;2023-05-03T01:52:49;99574.41;;;8.12;45.34
56074;BME280;41950;55.840;37.442;2023-05-03T01:55:17;99681.50;;;8.86;45.40
56074;BME280;41950;55.840;37.442;2023-05-03T01:57:43;99688.28;;;8.95;45.50
56074;BME280;41950;55.840;37.442;2023-05-03T02:00:09;99697.78;;;8.94;45.61
56074;BME280;41950;55.840;37.442;2023-05-03T02:02:35;99656.63;;;8.70;46.49
56074;BME280;41950;55.840;37.442;2023-05-03T02:05:01;99600.13;;;8.27;46.21
56074;BME280;41950;55.840;37.442;2023-05-03T02:07:29;99759.63;;;9.22;45.97
56074;BME280;41950;55.840;37.442;2023-05-03T02:09:54;99696.97;;;8.91;45.84
56074;BME280;41950;55.840;37.442;2023-05-03T02:12:20;99679.88;;;8.75;45.39
56074;BME280;41950;55.840;37.442;2023-05-03T02:14:46;99659.22;;;8.70;45.28
56074;BME280;41950;55.840;37.442;2023-05-03T02:17:11;99700.50;;;8.84;45.86
56074;BME280;41950;55.840;37.442;2023-05-03T02:19:37;99641.28;;;8.55;45.50
56074;BME280;41950;55.840;37.442;2023-05-03T02:22:03;99721.88;;;8.99;45.58
56074;BME280;41950;55.840;37.442;2023-05-03T02:24:29;99675.56;;;8.72;46.03
56074;BME280;41950;55.840;37.442;2023-05-03T02:26:55;99721.91;;;8.96;46.41
56074;BME280;41950;55.840;37.442;2023-05-03T02:29:21;99592.41;;;8.23;46.39
56074;BME280;41950;55.840;37.442;2023-05-03T02:31:47;99557.16;;;8.14;46.19
56074;BME280;41950;55.840;37.442;2023-05-03T02:34:12;99623.19;;;8.49;46.42
56074;BME280;41950;55.840;37.442;2023-05-03T02:36:38;99645.44;;;8.68;46.62
56074;BME280;41950;55.840;37.442;2023-05-03T02:39:04;99642.88;;;8.65;46.63
56074;BME280;41950;55.840;37.442;2023-05-03T02:41:30;99647.16;;;8.69;46.19
56074;BME280;41950;55.840;37.442;2023-05-03T02:43:56;99655.75;;;8.71;46.50
56074;BME280;41950;55.840;37.442;2023-05-03T02:46:21;99686.47;;;9.02;46.42
56074;BME280;41950;55.840;37.442;2023-05-03T02:48:47;99678.75;;;8.98;46.11
56074;BME280;41950;55.840;37.442;2023-05-03T02:51:13;99737.09;;;9.33;46.41
56074;BME280;41950;55.840;37.442;2023-05-03T02:53:38;99696.81;;;9.08;46.35
56074;BME280;41950;55.840;37.442;2023-05-03T02:56:04;99639.25;;;8.84;46.24
56074;BME280;41950;55.840;37.442;2023-05-03T02:58:30;99594.63;;;8.61;46.02
56074;BME280;41950;55.840;37.442;2023-05-03T03:00:56;99490.09;;;7.99;45.96
56074;BME280;41950;55.840;37.442;2023-05-03T03:03:22;99598.88;;;8.66;46.01
56074;BME280;41950;55.840;37.442;2023-05-03T03:05:49;99446.28;;;7.87;46.39
56074;BME280;41950;55.840;37.442;2023-05-03T03:08:17;99638.28;;;8.91;45.89
56074;BME280;41950;55.840;37.442;2023-05-03T03:10:42;99622.78;;;8.90;45.86
56074;BME280;41950;55.840;37.442;2023-05-03T03:13:08;99618.47;;;8.89;46.00
56074;BME280;41950;55.840;37.442;2023-05-03T03:15:34;99674.25;;;9.17;46.09
56074;BME280;41950;55.840;37.442;2023-05-03T03:18:00;99643.31;;;9.05;45.39
56074;BME280;41950;55.840;37.442;2023-05-03T03:20:25;99674.28;;;9.14;45.31
56074;BME280;41950;55.840;37.442;2023-05-03T03:22:51;99609.00;;;8.89;45.54
56074;BME280;41950;55.840;37.442;2023-05-03T03:25:17;99724.69;;;9.56;44.89
56074;BME280;41950;55.840;37.442;2023-05-03T03:27:42;99566.94;;;8.69;45.21
56074;BME280;41950;55.840;37.442;2023-05-03T03:30:08;99672.34;;;9.32;44.29
56074;BME280;41950;55.840;37.442;2023-05-03T03:32:36;99729.81;;;9.64;44.36
56074;BME280;41950;55.840;37.442;2023-05-03T03:35:02;99755.44;;;9.84;44.58
56074;BME280;41950;55.840;37.442;2023-05-03T03:37:29;99743.31;;;9.86;44.10
56074;BME280;41950;55.840;37.442;2023-05-03T03:39:55;99699.53;;;9.68;44.38
56074;BME280;41950;55.840;37.442;2023-05-03T03:42:20;99668.00;;;9.35;44.73
56074;BME280;41950;55.840;37.442;2023-05-03T03:44:48;99569.47;;;8.75;44.79
56074;BME280;41950;55.840;37.442;2023-05-03T03:47:14;99604.72;;;8.85;44.69
56074;BME280;41950;55.840;37.442;2023-05-03T03:49:40;99694.88;;;9.23;45.41
56074;BME280;41950;55.840;37.442;2023-05-03T03:52:05;99664.84;;;9.09;46.12
56074;BME280;41950;55.840;37.442;2023-05-03T03:54:31;99781.53;;;9.72;47.18
56074;BME280;41950;55.840;37.442;2023-05-03T03:56:59;99655.59;;;8.86;47.55
56074;BME280;41950;55.840;37.442;2023-05-03T03:59:25;99790.31;;;9.58;49.01
56074;BME280;41950;55.840;37.442;2023-05-03T04:01:51;99619.66;;;8.60;49.62
56074;BME280;41950;55.840;37.442;2023-05-03T04:04:16;99635.19;;;8.60;50.77
56074;BME280;41950;55.840;37.442;2023-05-03T04:06:42;99722.72;;;9.06;50.38
56074;BME280;41950;55.840;37.442;2023-05-03T04:09:08;99783.63;;;9.39;51.64
56074;BME280;41950;55.840;37.442;2023-05-03T04:11:37;99661.78;;;8.72;51.97
56074;BME280;41950;55.840;37.442;2023-05-03T04:14:06;99768.97;;;9.38;52.36
56074;BME280;41950;55.840;37.442;2023-05-03T04:16:32;99576.13;;;8.13;52.16
56074;BME280;41950;55.840;37.442;2023-05-03T04:18:57;99545.09;;;8.13;52.83
56074;BME280;41950;55.840;37.442;2023-05-03T04:21:23;99607.75;;;8.44;53.15
56074;BME280;41950;55.840;37.442;2023-05-03T04:23:52;99779.25;;;9.44;53.02
56074;BME280;41950;55.840;37.442;2023-05-03T04:26:18;99681.56;;;8.79;52.38
56074;BME280;41950;55.840;37.442;2023-05-03T04:28:46;99558.19;;;7.95;53.11
56074;BME280;41950;55.840;37.442;2023-05-03T04:31:12;99576.16;;;8.07;53.80
56074;BME280;41950;55.840;37.442;2023-05-03T04:33:39;99664.50;;;8.59;54.55
56074;BME280;41950;55.840;37.442;2023-05-03T04:36:05;99601.03;;;8.22;54.65
56074;BME280;41950;55.840;37.442;2023-05-03T04:38:31;99533.38;;;7.75;54.76
56074;BME280;41950;55.840;37.442;2023-05-03T04:40:57;99594.16;;;8.19;55.73
56074;BME280;41950;55.840;37.442;2023-05-03T04:43:23;99668.84;;;8.57;56.07
56074;BME280;41950;55.840;37.442;2023-05-03T04:45:51;99706.44;;;8.93;56.47
56074;BME280;41950;55.840;37.442;2023-05-03T04:48:18;99772.50;;;9.28;57.04
56074;BME280;41950;55.840;37.442;2023-05-03T04:50:44;99588.94;;;8.25;56.91
56074;BME280;41950;55.840;37.442;2023-05-03T04:53:09;99719.38;;;8.93;56.78
56074;BME280;41950;55.840;37.442;2023-05-03T04:55:36;99654.94;;;8.66;56.49
56074;BME280;41950;55.840;37.442;2023-05-03T04:58:01;99551.16;;;8.09;56.74
56074;BME280;41950;55.840;37.442;2023-05-03T05:00:27;99562.25;;;8.23;56.92
56074;BME280;41950;55.840;37.442;2023-05-03T05:02:53;99804.84;;;9.72;58.07
56074;BME280;41950;55.840;37.442;2023-05-03T05:05:19;99614.28;;;8.80;56.99
56074;BME280;41950;55.840;37.442;2023-05-03T05:07:45;99706.00;;;9.33;56.25
56074;BME280;41950;55.840;37.442;2023-05-03T05:10:11;99700.81;;;9.35;55.99
56074;BME280;41950;55.840;37.442;2023-05-03T05:12:37;99808.03;;;9.95;56.85
56074;BME280;41950;55.840;37.442;2023-05-03T05:15:03;99521.56;;;8.41;56.08
56074;BME280;41950;55.840;37.442;2023-05-03T05:17:30;99712.63;;;9.55;56.44
56074;BME280;41950;55.840;37.442;2023-05-03T05:19:56;99662.91;;;9.26;55.90
56074;BME280;41950;55.840;37.442;2023-05-03T05:22:22;99625.03;;;9.17;55.75
56074;BME280;41950;55.840;37.442;2023-05-03T05:24:47;99703.59;;;9.84;55.68
56074;BME280;41950;55.840;37.442;2023-05-03T05:27:13;99724.91;;;10.06;55.97
56074;BME280;41950;55.840;37.442;2023-05-03T05:29:39;99566.34;;;9.18;55.06
56074;BME280;41950;55.840;37.442;2023-05-03T05:32:04;99711.84;;;10.10;54.77
56074;BME280;41950;55.840;37.442;2023-05-03T05:34:31;99653.84;;;9.60;54.91
56074;BME280;41950;55.840;37.442;2023-05-03T05:36:57;99609.34;;;9.28;55.61
56074;BME280;41950;55.840;37.442;2023-05-03T05:39:22;99660.19;;;9.38;55.46
56074;BME280;41950;55.840;37.442;2023-05-03T05:41:48;99589.22;;;8.82;55.50
56074;BME280;41950;55.840;37.442;2023-05-03T05:44:14;99634.38;;;9.29;56.21
56074;BME280;41950;55.840;37.442;2023-05-03T05:46:40;99651.53;;;9.39;56.07
56074;BME280;41950;55.840;37.442;2023-05-03T05:49:05;99735.94;;;10.20;55.91
56074;BME280;41950;55.840;37.442;2023-05-03T05:51:31;99773.66;;;10.44;54.89
56074;BME280;41950;55.840;37.442;2023-05-03T05:53:57;99727.13;;;10.32;55.16
56074;BME280;41950;55.840;37.442;2023-05-03T05:56:24;99606.81;;;9.85;54.68
56074;BME280;41950;55.840;37.442;2023-05-03T05:58:52;99642.69;;;10.12;54.22
56074;BME280;41950;55.840;37.442;2023-05-03T06:01:18;99627.38;;;9.97;53.76
56074;BME280;41950;55.840;37.442;2023-05-03T06:03:43;99633.47;;;9.95;53.59
56074;BME280;41950;55.840;37.442;2023-05-03T06:06:10;99583.34;;;9.39;54.45
56074;BME280;41950;55.840;37.442;2023-05-03T06:08:35;99667.00;;;10.05;54.26
56074;BME280;41950;55.840;37.442;2023-05-03T06:11:01;99630.81;;;9.98;54.03
56074;BME280;41950;55.840;37.442;2023-05-03T06:13:27;99647.75;;;10.21;53.59
56074;BME280;41950;55.840;37.442;2023-05-03T06:15:53;99571.31;;;9.91;54.14
56074;BME280;41950;55.840;37.442;2023-05-03T06:18:19;99826.50;;;11.43;53.34
56074;BME280;41950;55.840;37.442;2023-05-03T06:20:48;99716.81;;;10.81;54.01
56074;BME280;41950;55.840;37.442;2023-05-03T06:23:14;99832.75;;;11.34;54.08
56074;BME280;41950;55.840;37.442;2023-05-03T06:25:40;99790.09;;;10.98;54.10
56074;BME280;41950;55.840;37.442;2023-05-03T06:28:09;99732.59;;;10.69;54.66
56074;BME280;41950;55.840;37.442;2023-05-03T06:30:38;99716.28;;;10.61;54.18
56074;BME280;41950;55.840;37.442;2023-05-03T06:33:04;99792.50;;;11.07;54.01
56074;BME280;41950;55.840;37.442;2023-05-03T06:35:30;99680.13;;;10.51;53.87
56074;BME280;41950;55.840;37.442;2023-05-03T06:37:56;99717.75;;;10.77;53.83
56074;BME280;41950;55.840;37.442;2023-05-03T06:40:22;99758.75;;;11.07;53.35
56074;BME280;41950;55.840;37.442;2023-05-03T06:42:51;99658.25;;;10.65;53.47
56074;BME280;41950;55.840;37.442;2023-05-03T06:45:17;99678.00;;;11.18;52.43
56074;BME280;41950;55.840;37.442;2023-05-03T06:47:43;99686.19;;;11.43;51.88
56074;BME280;41950;55.840;37.442;2023-05-03T06:50:09;99582.56;;;10.86;51.54
56074;BME280;41950;55.840;37.442;2023-05-03T06:52:35;99752.88;;;11.87;51.64
56074;BME280;41950;55.840;37.442;2023-05-03T06:55:03;99654.66;;;11.17;51.09
56074;BME280;41950;55.840;37.442;2023-05-03T06:57:29;99824.44;;;12.06;51.66
56074;BME280;41950;55.840;37.442;2023-05-03T06:59:55;99533.59;;;10.25;51.42
56074;BME280;41950;55.840;37.442;2023-05-03T07:02:21;99513.78;;;10.20;51.95
56074;BME280;41950;55.840;37.442;2023-05-03T07:04:47;99670.00;;;11.30;51.80
56074;BME280;41950;55.840;37.442;2023-05-03T07:07:13;99850.16;;;12.59;51.07
56074;BME280;41950;55.840;37.442;2023-05-03T07:09:40;99759.94;;;12.21;50.68
56074;BME280;41950;55.840;37.442;2023-05-03T07:12:06;99630.31;;;11.62;50.13
56074;BME280;41950;55.840;37.442;2023-05-03T07:14:32;99722.63;;;12.22;50.63
56074;BME280;41950;55.840;37.442;2023-05-03T07:16:58;99730.81;;;12.03;50.18
56074;BME280;41950;55.840;37.442;2023-05-03T07:19:23;99731.44;;;12.16;50.78
56074;BME280;41950;55.840;37.442;2023-05-03T07:21:49;99670.56;;;11.86;50.58
56074;BME280;41950;55.840;37.442;2023-05-03T07:24:16;99816.88;;;13.07;49.82
56074;BME280;41950;55.840;37.442;2023-05-03T07:26:42;99697.03;;;12.41;50.08
56074;BME280;41950;55.840;37.442;2023-05-03T07:29:07;99672.91;;;12.34;49.58
56074;BME280;41950;55.840;37.442;2023-05-03T07:31:33;99840.91;;;13.54;48.58
56074;BME280;41950;55.840;37.442;2023-05-03T07:33:59;99605.25;;;12.34;48.18
56074;BME280;41950;55.840;37.442;2023-05-03T07:36:25;99734.81;;;13.25;48.18
56074;BME280;41950;55.840;37.442;2023-05-03T07:38:52;99665.94;;;13.01;47.55
56074;BME280;41950;55.840;37.442;2023-05-03T07:41:18;99849.75;;;14.10;47.53
56074;BME280;41950;55.840;37.442;2023-05-03T07:43:43;99758.56;;;13.76;47.29
56074;BME280;41950;55.840;37.442;2023-05-03T07:46:09;99810.28;;;13.91;46.99
56074;BME280;41950;55.840;37.442;2023-05-03T07:48:35;99635.06;;;12.86;47.00
56074;BME280;41950;55.840;37.442;2023-05-03T07:51:03;99767.06;;;13.83;47.09
56074;BME280;41950;55.840;37.442;2023-05-03T07:53:29;99807.91;;;14.13;46.94
56074;BME280;41950;55.840;37.442;2023-05-03T07:55:55;99708.91;;;13.50;47.07
56074;BME280;41950;55.840;37.442;2023-05-03T07:58:24;99782.09;;;13.75;47.02
56074;BME280;41950;55.840;37.442;2023-05-03T08:00:53;99721.03;;;13.20;47.03
56074;BME280;41950;55.840;37.442;2023-05-03T08:03:19;99639.97;;;12.65;47.84
56074;BME280;41950;55.840;37.442;2023-05-03T08:05:45;99728.00;;;13.19;48.39
56074;BME280;41950;55.840;37.442;2023-05-03T08:08:11;99758.34;;;13.22;48.68
56074;BME280;41950;55.840;37.442;2023-05-03T08:10:38;99638.91;;;12.40;48.20
56074;BME280;41950;55.840;37.442;2023-05-03T08:13:05;99888.22;;;13.73;48.82
56074;BME280;41950;55.840;37.442;2023-05-03T08:15:31;99753.88;;;12.93;48.49
56074;BME280;41950;55.840;37.442;2023-05-03T08:18:00;99623.75;;;12.22;48.64
56074;BME280;41950;55.840;37.442;2023-05-03T08:20:26;99581.91;;;11.95;49.12
56074;BME280;41950;55.840;37.442;2023-05-03T08:22:52;99599.06;;;12.02;49.53
56074;BME280;41950;55.840;37.442;2023-05-03T08:25:24;99829.34;;;13.30;50.34
56074;BME280;41950;55.840;37.442;2023-05-03T08:27:53;99594.63;;;12.07;50.16
56074;BME280;41950;55.840;37.442;2023-05-03T08:30:20;99646.63;;;12.43;50.77
56074;BME280;41950;55.840;37.442;2023-05-03T08:32:51;99621.91;;;12.25;51.00
56074;BME280;41950;55.840;37.442;2023-05-03T08:35:17;99699.88;;;12.65;50.38
56074;BME280;41950;55.840;37.442;2023-05-03T08:37:44;99800.91;;;13.22;51.58
56074;BME280;41950;55.840;37.442;2023-05-03T08:40:10;99893.47;;;13.71;52.90
56074;BME280;41950;55.840;37.442;2023-05-03T08:42:42;99729.97;;;12.76;53.18
56074;BME280;41950;55.840;37.442;2023-05-03T08:45:15;99774.41;;;13.04;53.57
56074;BME280;41950;55.840;37.442;2023-05-03T08:47:42;99812.69;;;13.36;53.88
56074;BME280;41950;55.840;37.442;2023-05-03T08:50:14;99769.66;;;13.21;54.01
56074;BME280;41950;55.840;37.442;2023-05-03T08:52:41;99624.09;;;12.42;54.63
56074;BME280;41950;55.840;37.442;2023-05-03T08:55:08;99736.97;;;13.08;55.04
56074;BME280;41950;55.840;37.442;2023-05-03T08:57:34;99892.88;;;13.92;54.25
56074;BME280;41950;55.840;37.442;2023-05-03T09:00:01;99791.31;;;13.55;53.98
56074;BME280;41950;55.840;37.442;2023-05-03T09:02:33;99732.09;;;13.59;53.56
56074;BME280;41950;55.840;37.442;2023-05-03T09:05:01;99625.88;;;13.05;52.70
56074;BME280;41950;55.840;37.442;2023-05-03T09:07:31;99672.66;;;13.41;53.21
56074;BME280;41950;55.840;37.442;2023-05-03T09:09:57;99721.19;;;13.76;53.65
56074;BME280;41950;55.840;37.442;2023-05-03T09:12:36;99714.44;;;13.98;52.46
56074;BME280;41950;55.840;37.442;2023-05-03T09:15:05;99746.13;;;14.14;51.48
56074;BME280;41950;55.840;37.442;2023-05-03T09:17:32;99889.25;;;15.14;51.75
56074;BME280;41950;55.840;37.442;2023-05-03T09:19:58;99621.06;;;13.80;52.08
56074;BME280;41950;55.840;37.442;2023-05-03T09:22:31;99875.19;;;15.43;51.20
56074;BME280;41950;55.840;37.442;2023-05-03T09:24:58;99757.34;;;14.98;50.76
56074;BME280;41950;55.840;37.442;2023-05-03T09:27:26;99796.09;;;15.37;49.84
56074;BME280;41950;55.840;37.442;2023-05-03T09:29:53;99799.41;;;15.42;48.81
56074;BME280;41950;55.840;37.442;2023-05-03T09:32:19;99656.84;;;14.31;48.59
56074;BME280;41950;55.840;37.442;2023-05-03T09:34:50;99670.06;;;14.26;48.88
56074;BME280;41950;55.840;37.442;2023-05-03T09:37:16;99710.91;;;14.55;49.26
56074;BME280;41950;55.840;37.442;2023-05-03T09:39:44;99848.69;;;15.28;50.07
56074;BME280;41950;55.840;37.442;2023-05-03T09:42:15;99800.75;;;14.76;50.03
56074;BME280;41950;55.840;37.442;2023-05-03T09:44:43;99756.09;;;14.01;50.68
56074;BME280;41950;55.840;37.442;2023-05-03T09:47:12;99704.91;;;13.37;51.55
56074;BME280;41950;55.840;37.442;2023-05-03T09:49:39;99751.53;;;13.49;51.48
56074;BME280;41950;55.840;37.442;2023-05-03T09:52:07;99802.03;;;13.45;51.23
56074;BME280;41950;55.840;37.442;2023-05-03T09:54:34;99796.53;;;13.23;51.96
56074;BME280;41950;55.840;37.442;2023-05-03T09:57:01;99720.53;;;12.72;52.29
56074;BME280;41950;55.840;37.442;2023-05-03T09:59:30;99815.75;;;13.19;53.13
56074;BME280;41950;55.840;37.442;2023-05-03T10:01:58;99657.28;;;12.34;52.91
56074;BME280;41950;55.840;37.442;2023-05-03T10:04:26;99902.28;;;14.29;51.24
56074;BME280;41950;55.840;37.442;2023-05-03T10:07:00;99910.72;;;14.68;51.25
56074;BME280;41950;55.840;37.442;2023-05-03T10:09:38;99910.09;;;15.42;49.51
56074;BME280;41950;55.840;37.442;2023-05-03T10:12:08;99783.66;;;15.19;47.76
56074;BME280;41950;55.840;37.442;2023-05-03T10:14:36;99672.31;;;14.63;47.48
56074;BME280;41950;55.840;37.442;2023-05-03T10:17:09;99878.75;;;15.92;45.97
56074;BME280;41950;55.840;37.442;2023-05-03T10:22:32;99911.44;;;16.05;46.01
56074;BME280;41950;55.840;37.442;2023-05-03T10:25:09;99881.38;;;15.67;45.56
56074;BME280;41950;55.840;37.442;2023-05-03T10:27:49;99857.41;;;15.53;45.89
56074;BME280;41950;55.840;37.442;2023-05-03T10:35:52;99651.31;;;14.66;45.46
56074;BME280;41950;55.840;37.442;2023-05-03T10:38:21;99790.59;;;15.20;46.75
56074;BME280;41950;55.840;37.442;2023-05-03T10:40:48;99885.81;;;15.65;46.40
56074;BME280;41950;55.840;37.442;2023-05-03T10:45:56;99813.00;;;15.27;45.45
56074;BME280;41950;55.840;37.442;2023-05-03T10:48:22;99828.09;;;14.66;46.33
56074;BME280;41950;55.840;37.442;2023-05-03T10:50:48;99854.88;;;14.99;46.11
56074;BME280;41950;55.840;37.442;2023-05-03T10:53:36;99933.34;;;15.78;45.44
56074;BME280;41950;55.840;37.442;2023-05-03T10:56:10;99750.06;;;15.08;45.04
56074;BME280;41950;55.840;37.442;2023-05-03T11:01:08;99913.84;;;17.68;41.85
56074;BME280;41950;55.840;37.442;2023-05-03T11:06:03;99903.59;;;16.52;43.48
56074;BME280;41950;55.840;37.442;2023-05-03T11:08:30;99822.66;;;16.23;43.27
56074;BME280;41950;55.840;37.442;2023-05-03T11:11:04;99772.06;;;16.66;42.62
56074;BME280;41950;55.840;37.442;2023-05-03T11:13:36;99693.59;;;16.19;42.14
56074;BME280;41950;55.840;37.442;2023-05-03T11:16:04;99748.81;;;16.35;42.31
56074;BME280;41950;55.840;37.442;2023-05-03T11:18:31;99741.91;;;15.65;43.67
56074;BME280;41950;55.840;37.442;2023-05-03T11:21:00;99805.50;;;15.67;44.90
56074;BME280;41950;55.840;37.442;2023-05-03T11:23:28;99814.31;;;16.12;44.31
56074;BME280;41950;55.840;37.442;2023-05-03T11:25:55;99703.81;;;16.03;43.09
56074;BME280;41950;55.840;37.442;2023-05-03T11:28:24;99754.63;;;17.27;40.40
56074;BME280;41950;55.840;37.442;2023-05-03T11:30:50;99851.72;;;18.26;39.40
56074;BME280;41950;55.840;37.442;2023-05-03T11:33:16;99747.22;;;18.69;37.84
56074;BME280;41950;55.840;37.442;2023-05-03T11:35:42;99673.84;;;19.14;36.12
56074;BME280;41950;55.840;37.442;2023-05-03T11:38:08;99802.31;;;20.23;35.47
56074;BME280;41950;55.840;37.442;2023-05-03T11:40:34;99803.22;;;19.90;35.85
56074;BME280;41950;55.840;37.442;2023-05-03T11:43:04;99887.88;;;20.82;34.75
56074;BME280;41950;55.840;37.442;2023-05-03T11:45:54;99734.19;;;20.01;34.62
56074;BME280;41950;55.840;37.442;2023-05-03T11:48:20;99746.75;;;20.12;35.16
56074;BME280;41950;55.840;37.442;2023-05-03T11:50:54;99831.81;;;21.68;34.11
56074;BME280;41950;55.840;37.442;2023-05-03T11:53:22;99696.06;;;20.38;33.64
56074;BME280;41950;55.840;37.442;2023-05-03T11:55:50;99860.50;;;21.14;34.35
56074;BME280;41950;55.840;37.442;2023-05-03T11:58:22;99731.97;;;19.10;35.40
56074;BME280;41950;55.840;37.442;2023-05-03T12:00:51;99811.47;;;18.80;37.37
56074;BME280;41950;55.840;37.442;2023-05-03T12:03:18;99762.31;;;18.28;37.91
56074;BME280;41950;55.840;37.442;2023-05-03T12:05:45;99809.81;;;19.49;35.88
56074;BME280;41950;55.840;37.442;2023-05-03T12:08:12;99709.38;;;19.06;35.63
56074;BME280;41950;55.840;37.442;2023-05-03T12:10:40;99771.53;;;19.92;34.96
56074;BME280;41950;55.840;37.442;2023-05-03T12:13:07;99820.13;;;20.66;34.21
56074;BME280;41950;55.840;37.442;2023-05-03T12:15:35;99719.84;;;20.68;32.86
56074;BME280;41950;55.840;37.442;2023-05-03T12:18:04;99743.94;;;20.15;33.26
56074;BME280;41950;55.840;37.442;2023-05-03T12:20:31;99924.34;;;21.37;33.22
56074;BME280;41950;55.840;37.442;2023-05-03T12:22:59;99690.28;;;18.85;33.37
56074;BME280;41950;55.840;37.442;2023-05-03T12:25:26;99878.88;;;18.64;36.51
56074;BME280;41950;55.840;37.442;2023-05-03T12:27:53;99634.16;;;16.84;38.27
56074;BME280;41950;55.840;37.442;2023-05-03T12:30:20;99791.38;;;17.67;38.87
56074;BME280;41950;55.840;37.442;2023-05-03T12:32:46;99777.47;;;17.44;39.26
56074;BME280;41950;55.840;37.442;2023-05-03T12:35:12;99781.03;;;17.03;39.00
56074;BME280;41950;55.840;37.442;2023-05-03T12:37:39;99770.44;;;16.62;39.86
56074;BME280;41950;55.840;37.442;2023-05-03T12:40:05;99795.34;;;16.74;40.66
56074;BME280;41950;55.840;37.442;2023-05-03T12:42:32;99802.63;;;16.87;40.81
56074;BME280;41950;55.840;37.442;2023-05-03T12:44:58;99857.16;;;17.01;40.22
56074;BME280;41950;55.840;37.442;2023-05-03T12:47:28;99919.44;;;17.38;40.39
56074;BME280;41950;55.840;37.442;2023-05-03T12:49:54;99864.94;;;17.03;40.80
56074;BME280;41950;55.840;37.442;2023-05-03T12:52:20;99759.09;;;16.61;41.12
56074;BME280;41950;55.840;37.442;2023-05-03T12:54:47;99662.78;;;16.26;40.20
56074;BME280;41950;55.840;37.442;2023-05-03T12:57:13;99670.69;;;16.02;39.23
56074;BME280;41950;55.840;37.442;2023-05-03T12:59:40;99630.44;;;15.38;40.07
56074;BME280;41950;55.840;37.442;2023-05-03T13:02:10;99720.22;;;15.85;40.75
56074;BME280;41950;55.840;37.442;2023-05-03T13:04:36;99827.41;;;16.12;40.81
56074;BME280;41950;55.840;37.442;2023-05-03T13:07:02;99796.63;;;15.46;42.17
56074;BME280;41950;55.840;37.442;2023-05-03T13:09:28;99745.38;;;14.91;42.63
56074;BME280;41950;55.840;37.442;2023-05-03T13:11:54;99644.00;;;14.25;43.18
56074;BME280;41950;55.840;37.442;2023-05-03T13:14:20;99731.69;;;14.58;43.88
56074;BME280;41950;55.840;37.442;2023-05-03T13:16:47;99789.91;;;14.88;44.10
56074;BME280;41950;55.840;37.442;2023-05-03T13:19:16;99851.38;;;15.26;43.72
56074;BME280;41950;55.840;37.442;2023-05-03T13:21:42;99714.00;;;14.66;43.57
56074;BME280;41950;55.840;37.442;2023-05-03T13:24:08;99830.91;;;15.39;43.44
56074;BME280;41950;55.840;37.442;2023-05-03T13:26:34;99621.47;;;14.20;43.92